Terminal Aerodrome Forecast
Issued by NWS

Home | Current Version | Previous Version | Text Only | Print | Product List | Glossary On
Versions: 1 2 3 4 5 6 7 8 9 10 11 12 13 14 15 16 17 18 19 20 21 22 23 24 25 26 27 28 29 30 31 32
000
FTUS44 KOUN 191132
TAFCSM
TAF
KCSM 191132Z 1912/2012 14006KT 1SM BR OVC006
      TEMPO 1912/1915 1/4SM FG VV002
     FM191500 16010KT 3SM BR OVC008
     FM191800 17015G22KT P6SM BKN015
     FM200000 16013KT 5SM BR OVC008 PROB30 2001/2005 3SM -TSRA BR
      SCT008 OVC015CB
     FM200700 19013KT P6SM SCT015 BKN100=

USA.gov is the U.S. government's official web portal to all federal, state and local government web resources and services.